sensor_id;sensor_type;location;lat;lon;timestamp;temperature;humidity
13697;DHT22;6920;50.080;8.226;2023-09-08T00:45:48;18.00;99.90
13697;DHT22;6920;50.080;8.226;2023-09-08T00:55:41;18.00;99.90
13697;DHT22;6920;50.080;8.226;2023-09-08T01:20:20;18.00;99.90
13697;DHT22;6920;50.080;8.226;2023-09-08T06:00:59;17.70;99.90
13697;DHT22;6920;50.080;8.226;2023-09-08T06:03:27;17.70;99.90
13697;DHT22;6920;50.080;8.226;2023-09-08T06:05:58;17.70;99.90
13697;DHT22;6920;50.080;8.226;2023-09-08T06:08:25;17.80;99.90
13697;DHT22;6920;50.080;8.226;2023-09-08T06:10:52;17.90;99.90
13697;DHT22;6920;50.080;8.226;2023-09-08T06:13:21;18.00;99.90
13697;DHT22;6920;50.080;8.226;2023-09-08T06:15:53;17.90;99.90
13697;DHT22;6920;50.080;8.226;2023-09-08T06:18:22;18.00;99.90
13697;DHT22;6920;50.080;8.226;2023-09-08T06:20:49;18.20;99.90
13697;DHT22;6920;50.080;8.226;2023-09-08T06:23:19;18.30;99.90
13697;DHT22;6920;50.080;8.226;2023-09-08T06:25:46;18.30;99.90
13697;DHT22;6920;50.080;8.226;2023-09-08T06:28:14;18.40;99.90
13697;DHT22;6920;50.080;8.226;2023-09-08T06:30:42;18.60;99.90
13697;DHT22;6920;50.080;8.226;2023-09-08T06:38:05;18.90;99.90
13697;DHT22;6920;50.080;8.226;2023-09-08T06:40:32;19.00;99.90
13697;DHT22;6920;50.080;8.226;2023-09-08T06:42:59;19.00;99.90
13697;DHT22;6920;50.080;8.226;2023-09-08T06:47:56;19.30;99.90
13697;DHT22;6920;50.080;8.226;2023-09-08T06:50:25;19.40;99.90
13697;DHT22;6920;50.080;8.226;2023-09-08T06:52:53;19.50;99.90
13697;DHT22;6920;50.080;8.226;2023-09-08T06:55:23;19.60;99.90
13697;DHT22;6920;50.080;8.226;2023-09-08T06:57:50;19.90;99.90
13697;DHT22;6920;50.080;8.226;2023-09-08T07:00:17;20.10;99.90
13697;DHT22;6920;50.080;8.226;2023-09-08T07:02:48;20.30;99.90
13697;DHT22;6920;50.080;8.226;2023-09-08T07:07:51;20.70;99.90
13697;DHT22;6920;50.080;8.226;2023-09-08T07:10:20;20.70;99.90
13697;DHT22;6920;50.080;8.226;2023-09-08T07:12:49;20.70;99.90
13697;DHT22;6920;50.080;8.226;2023-09-08T07:15:16;20.90;99.90
13697;DHT22;6920;50.080;8.226;2023-09-08T07:17:44;21.00;99.90
13697;DHT22;6920;50.080;8.226;2023-09-08T07:20:11;21.30;99.90
13697;DHT22;6920;50.080;8.226;2023-09-08T07:22:45;21.50;99.90
13697;DHT22;6920;50.080;8.226;2023-09-08T07:25:17;21.70;99.90
13697;DHT22;6920;50.080;8.226;2023-09-08T07:27:46;21.90;99.90
13697;DHT22;6920;50.080;8.226;2023-09-08T07:30:20;22.00;99.90
13697;DHT22;6920;50.080;8.226;2023-09-08T07:32:52;22.10;99.90
13697;DHT22;6920;50.080;8.226;2023-09-08T07:35:21;22.40;99.90
13697;DHT22;6920;50.080;8.226;2023-09-08T07:37:53;22.70;99.90
13697;DHT22;6920;50.080;8.226;2023-09-08T07:40:28;22.90;99.90
13697;DHT22;6920;50.080;8.226;2023-09-08T07:43:00;22.90;99.90
13697;DHT22;6920;50.080;8.226;2023-09-08T07:45:26;23.20;99.90
13697;DHT22;6920;50.080;8.226;2023-09-08T07:47:55;23.50;99.90
13697;DHT22;6920;50.080;8.226;2023-09-08T07:50:25;23.60;99.90
13697;DHT22;6920;50.080;8.226;2023-09-08T07:53:05;23.70;99.90
13697;DHT22;6920;50.080;8.226;2023-09-08T07:55:35;24.10;99.90
13697;DHT22;6920;50.080;8.226;2023-09-08T07:58:07;24.10;99.90
13697;DHT22;6920;50.080;8.226;2023-09-08T08:00:40;23.90;99.90
13697;DHT22;6920;50.080;8.226;2023-09-08T08:03:15;23.80;99.90
13697;DHT22;6920;50.080;8.226;2023-09-08T08:05:44;24.20;99.90
13697;DHT22;6920;50.080;8.226;2023-09-08T08:08:13;24.50;99.90
13697;DHT22;6920;50.080;8.226;2023-09-08T08:10:43;25.10;99.90
13697;DHT22;6920;50.080;8.226;2023-09-08T08:15:44;24.80;99.90
13697;DHT22;6920;50.080;8.226;2023-09-08T08:18:14;24.90;99.90
13697;DHT22;6920;50.080;8.226;2023-09-08T08:20:44;24.70;99.90
13697;DHT22;6920;50.080;8.226;2023-09-08T08:23:21;25.00;99.90
13697;DHT22;6920;50.080;8.226;2023-09-08T08:25:49;24.60;99.90
13697;DHT22;6920;50.080;8.226;2023-09-08T08:28:25;25.50;99.90
13697;DHT22;6920;50.080;8.226;2023-09-08T08:30:53;25.40;99.90
13697;DHT22;6920;50.080;8.226;2023-09-08T08:33:23;26.10;99.90
13697;DHT22;6920;50.080;8.226;2023-09-08T08:35:57;26.10;99.90
13697;DHT22;6920;50.080;8.226;2023-09-08T08:38:39;26.30;99.90
13697;DHT22;6920;50.080;8.226;2023-09-08T08:41:08;27.00;99.90
13697;DHT22;6920;50.080;8.226;2023-09-08T08:43:37;27.40;99.90
13697;DHT22;6920;50.080;8.226;2023-09-08T08:46:09;27.70;99.90
13697;DHT22;6920;50.080;8.226;2023-09-08T08:51:14;28.20;99.90
13697;DHT22;6920;50.080;8.226;2023-09-08T08:53:51;27.70;99.90
13697;DHT22;6920;50.080;8.226;2023-09-08T08:56:22;27.80;99.90
13697;DHT22;6920;50.080;8.226;2023-09-08T08:58:54;27.20;99.90
13697;DHT22;6920;50.080;8.226;2023-09-08T09:01:27;27.70;99.90
13697;DHT22;6920;50.080;8.226;2023-09-08T09:03:57;28.20;99.90
13697;DHT22;6920;50.080;8.226;2023-09-08T09:06:27;28.10;99.90
13697;DHT22;6920;50.080;8.226;2023-09-08T09:09:16;28.60;99.90
13697;DHT22;6920;50.080;8.226;2023-09-08T09:11:48;29.10;99.90
13697;DHT22;6920;50.080;8.226;2023-09-08T09:14:17;29.10;99.90
13697;DHT22;6920;50.080;8.226;2023-09-08T09:16:44;29.40;99.90
13697;DHT22;6920;50.080;8.226;2023-09-08T09:19:19;28.90;99.90
13697;DHT22;6920;50.080;8.226;2023-09-08T09:22:00;28.50;99.90
13697;DHT22;6920;50.080;8.226;2023-09-08T09:24:34;29.00;99.90
13697;DHT22;6920;50.080;8.226;2023-09-08T09:27:04;29.40;99.90
13697;DHT22;6920;50.080;8.226;2023-09-08T09:29:43;28.60;99.90
13697;DHT22;6920;50.080;8.226;2023-09-08T09:32:11;29.00;99.90
13697;DHT22;6920;50.080;8.226;2023-09-08T09:34:48;29.70;99.90
13697;DHT22;6920;50.080;8.226;2023-09-08T09:37:17;30.20;99.90
13697;DHT22;6920;50.080;8.226;2023-09-08T09:39:54;29.70;99.90
13697;DHT22;6920;50.080;8.226;2023-09-08T09:42:22;29.80;99.90
13697;DHT22;6920;50.080;8.226;2023-09-08T09:44:51;30.10;99.90
13697;DHT22;6920;50.080;8.226;2023-09-08T09:47:24;30.30;99.90
13697;DHT22;6920;50.080;8.226;2023-09-08T09:49:56;30.50;99.90
13697;DHT22;6920;50.080;8.226;2023-09-08T09:52:25;30.60;99.90
13697;DHT22;6920;50.080;8.226;2023-09-08T09:54:55;30.30;99.90
13697;DHT22;6920;50.080;8.226;2023-09-08T09:57:24;30.60;99.90
13697;DHT22;6920;50.080;8.226;2023-09-08T09:59:56;30.60;99.80
13697;DHT22;6920;50.080;8.226;2023-09-08T10:02:28;31.00;99.50
13697;DHT22;6920;50.080;8.226;2023-09-08T10:04:57;31.10;99.20
13697;DHT22;6920;50.080;8.226;2023-09-08T10:07:40;31.00;99.20
13697;DHT22;6920;50.080;8.226;2023-09-08T10:10:09;30.90;99.90
13697;DHT22;6920;50.080;8.226;2023-09-08T10:12:42;31.00;99.00
13697;DHT22;6920;50.080;8.226;2023-09-08T10:17:55;31.20;98.60
13697;DHT22;6920;50.080;8.226;2023-09-08T10:20:27;30.60;99.00
13697;DHT22;6920;50.080;8.226;2023-09-08T10:23:04;30.40;99.70
13697;DHT22;6920;50.080;8.226;2023-09-08T10:28:08;30.50;99.50
13697;DHT22;6920;50.080;8.226;2023-09-08T10:33:06;31.20;98.10
13697;DHT22;6920;50.080;8.226;2023-09-08T10:35:34;31.80;97.50
13697;DHT22;6920;50.080;8.226;2023-09-08T10:38:27;31.60;97.60
13697;DHT22;6920;50.080;8.226;2023-09-08T10:44:03;31.20;97.30
13697;DHT22;6920;50.080;8.226;2023-09-08T10:49:07;31.50;96.10
13697;DHT22;6920;50.080;8.226;2023-09-08T10:51:39;32.00;95.50
13697;DHT22;6920;50.080;8.226;2023-09-08T10:54:08;31.50;96.60
13697;DHT22;6920;50.080;8.226;2023-09-08T10:57:08;31.80;96.10
13697;DHT22;6920;50.080;8.226;2023-09-08T11:02:34;31.40;96.20
13697;DHT22;6920;50.080;8.226;2023-09-08T11:05:08;32.10;95.90
13697;DHT22;6920;50.080;8.226;2023-09-08T11:07:44;32.30;94.90
13697;DHT22;6920;50.080;8.226;2023-09-08T11:10:19;31.50;96.20
13697;DHT22;6920;50.080;8.226;2023-09-08T11:15:22;31.30;96.50
13697;DHT22;6920;50.080;8.226;2023-09-08T11:17:53;31.40;96.90
13697;DHT22;6920;50.080;8.226;2023-09-08T11:20:27;31.90;95.80
13697;DHT22;6920;50.080;8.226;2023-09-08T11:22:55;32.30;95.00
13697;DHT22;6920;50.080;8.226;2023-09-08T11:30:26;31.80;95.50
13697;DHT22;6920;50.080;8.226;2023-09-08T11:32:57;31.40;96.30
13697;DHT22;6920;50.080;8.226;2023-09-08T11:35:27;31.70;94.80
13697;DHT22;6920;50.080;8.226;2023-09-08T11:41:05;31.80;94.60
13697;DHT22;6920;50.080;8.226;2023-09-08T11:43:47;31.50;94.70
13697;DHT22;6920;50.080;8.226;2023-09-08T11:46:17;31.50;94.80
13697;DHT22;6920;50.080;8.226;2023-09-08T11:48:44;32.10;94.80
13697;DHT22;6920;50.080;8.226;2023-09-08T11:51:13;32.60;94.20
13697;DHT22;6920;50.080;8.226;2023-09-08T11:56:08;32.50;94.40
13697;DHT22;6920;50.080;8.226;2023-09-08T12:01:05;32.70;93.50
13697;DHT22;6920;50.080;8.226;2023-09-08T12:03:32;33.00;92.90
13697;DHT22;6920;50.080;8.226;2023-09-08T12:06:00;32.00;93.50
13697;DHT22;6920;50.080;8.226;2023-09-08T12:08:30;32.50;93.80
13697;DHT22;6920;50.080;8.226;2023-09-08T12:10:58;32.40;92.70
13697;DHT22;6920;50.080;8.226;2023-09-08T12:13:25;32.90;93.60
13697;DHT22;6920;50.080;8.226;2023-09-08T12:15:56;33.30;92.50
13697;DHT22;6920;50.080;8.226;2023-09-08T12:18:43;33.10;92.10
13697;DHT22;6920;50.080;8.226;2023-09-08T12:23:47;32.90;92.80
13697;DHT22;6920;50.080;8.226;2023-09-08T12:26:17;32.90;92.40
13697;DHT22;6920;50.080;8.226;2023-09-08T12:28:46;32.80;93.10
13697;DHT22;6920;50.080;8.226;2023-09-08T12:31:21;32.60;92.60
13697;DHT22;6920;50.080;8.226;2023-09-08T12:33:50;31.50;94.00
13697;DHT22;6920;50.080;8.226;2023-09-08T12:36:23;32.30;92.50
13697;DHT22;6920;50.080;8.226;2023-09-08T12:38:53;31.80;94.00
13697;DHT22;6920;50.080;8.226;2023-09-08T12:41:20;32.30;92.80
13697;DHT22;6920;50.080;8.226;2023-09-08T12:43:47;31.90;93.80
13697;DHT22;6920;50.080;8.226;2023-09-08T12:46:18;32.80;92.90
13697;DHT22;6920;50.080;8.226;2023-09-08T12:48:47;33.00;92.10
13697;DHT22;6920;50.080;8.226;2023-09-08T12:51:14;33.00;92.40
13697;DHT22;6920;50.080;8.226;2023-09-08T12:53:43;32.20;92.20
13697;DHT22;6920;50.080;8.226;2023-09-08T12:58:42;32.50;92.70
13697;DHT22;6920;50.080;8.226;2023-09-08T13:01:09;32.20;92.00
13697;DHT22;6920;50.080;8.226;2023-09-08T13:03:39;32.40;92.40
13697;DHT22;6920;50.080;8.226;2023-09-08T13:06:06;32.40;92.90
13697;DHT22;6920;50.080;8.226;2023-09-08T13:08:34;32.40;92.20
13697;DHT22;6920;50.080;8.226;2023-09-08T13:11:10;31.90;92.90
13697;DHT22;6920;50.080;8.226;2023-09-08T13:13:40;32.30;92.30
13697;DHT22;6920;50.080;8.226;2023-09-08T13:16:09;32.20;92.20
13697;DHT22;6920;50.080;8.226;2023-09-08T13:18:36;32.30;92.70
13697;DHT22;6920;50.080;8.226;2023-09-08T13:21:06;32.40;92.40
13697;DHT22;6920;50.080;8.226;2023-09-08T13:23:37;32.60;91.50
13697;DHT22;6920;50.080;8.226;2023-09-08T13:26:23;33.10;91.50
13697;DHT22;6920;50.080;8.226;2023-09-08T13:28:53;32.60;91.10
13697;DHT22;6920;50.080;8.226;2023-09-08T13:31:25;33.30;91.40
13697;DHT22;6920;50.080;8.226;2023-09-08T13:33:56;32.40;91.00
13697;DHT22;6920;50.080;8.226;2023-09-08T13:36:37;32.20;91.10
13697;DHT22;6920;50.080;8.226;2023-09-08T13:39:06;32.50;91.30
13697;DHT22;6920;50.080;8.226;2023-09-08T13:41:48;32.80;90.90
13697;DHT22;6920;50.080;8.226;2023-09-08T13:44:17;32.70;90.80
13697;DHT22;6920;50.080;8.226;2023-09-08T13:46:48;33.50;90.80
13697;DHT22;6920;50.080;8.226;2023-09-08T13:49:18;34.00;89.10
13697;DHT22;6920;50.080;8.226;2023-09-08T13:51:47;34.10;89.30
13697;DHT22;6920;50.080;8.226;2023-09-08T13:54:17;33.60;89.10
13697;DHT22;6920;50.080;8.226;2023-09-08T13:56:44;33.30;88.20
13697;DHT22;6920;50.080;8.226;2023-09-08T13:59:12;33.30;89.30
13697;DHT22;6920;50.080;8.226;2023-09-08T14:01:41;33.20;88.60
13697;DHT22;6920;50.080;8.226;2023-09-08T14:04:08;33.10;88.10
13697;DHT22;6920;50.080;8.226;2023-09-08T14:06:37;33.00;88.60
13697;DHT22;6920;50.080;8.226;2023-09-08T14:09:06;32.90;87.50
13697;DHT22;6920;50.080;8.226;2023-09-08T14:11:34;32.70;89.40
13697;DHT22;6920;50.080;8.226;2023-09-08T14:14:01;33.20;87.30
13697;DHT22;6920;50.080;8.226;2023-09-08T14:16:29;33.70;88.20
13697;DHT22;6920;50.080;8.226;2023-09-08T14:18:58;33.80;85.80
13697;DHT22;6920;50.080;8.226;2023-09-08T14:21:32;33.30;84.70
13697;DHT22;6920;50.080;8.226;2023-09-08T14:24:01;32.90;84.60
13697;DHT22;6920;50.080;8.226;2023-09-08T14:26:30;33.30;83.60
13697;DHT22;6920;50.080;8.226;2023-09-08T14:33:57;32.60;87.70
13697;DHT22;6920;50.080;8.226;2023-09-08T14:36:26;33.20;84.50
13697;DHT22;6920;50.080;8.226;2023-09-08T14:38:54;33.10;83.70
13697;DHT22;6920;50.080;8.226;2023-09-08T14:44:39;33.30;82.80
13697;DHT22;6920;50.080;8.226;2023-09-08T14:47:07;32.90;82.70
13697;DHT22;6920;50.080;8.226;2023-09-08T14:49:39;33.00;84.00
13697;DHT22;6920;50.080;8.226;2023-09-08T14:52:10;33.10;84.10
13697;DHT22;6920;50.080;8.226;2023-09-08T14:54:47;33.10;84.40
13697;DHT22;6920;50.080;8.226;2023-09-08T14:57:16;32.90;82.90
13697;DHT22;6920;50.080;8.226;2023-09-08T14:59:47;32.20;83.60
13697;DHT22;6920;50.080;8.226;2023-09-08T15:02:17;31.60;84.80
13697;DHT22;6920;50.080;8.226;2023-09-08T15:04:47;31.40;86.40
13697;DHT22;6920;50.080;8.226;2023-09-08T15:07:17;30.40;87.30
13697;DHT22;6920;50.080;8.226;2023-09-08T15:09:47;31.70;87.00
13697;DHT22;6920;50.080;8.226;2023-09-08T15:12:25;31.30;86.30
13697;DHT22;6920;50.080;8.226;2023-09-08T15:14:55;31.40;87.50
13697;DHT22;6920;50.080;8.226;2023-09-08T15:17:22;31.50;86.20
13697;DHT22;6920;50.080;8.226;2023-09-08T15:19:56;31.50;87.10
13697;DHT22;6920;50.080;8.226;2023-09-08T15:22:25;31.40;86.30
13697;DHT22;6920;50.080;8.226;2023-09-08T15:24:56;31.30;87.10
13697;DHT22;6920;50.080;8.226;2023-09-08T15:27:25;31.20;87.20
13697;DHT22;6920;50.080;8.226;2023-09-08T15:32:25;31.10;87.90
13697;DHT22;6920;50.080;8.226;2023-09-08T15:34:54;30.90;88.20
13697;DHT22;6920;50.080;8.226;2023-09-08T15:39:51;30.50;88.70
13697;DHT22;6920;50.080;8.226;2023-09-08T15:45:44;30.20;89.20
13697;DHT22;6920;50.080;8.226;2023-09-08T15:48:13;30.00;85.50
13697;DHT22;6920;50.080;8.226;2023-09-08T15:50:42;29.80;87.30
13697;DHT22;6920;50.080;8.226;2023-09-08T15:53:12;29.50;87.80
13697;DHT22;6920;50.080;8.226;2023-09-08T15:55:41;29.30;88.60
13697;DHT22;6920;50.080;8.226;2023-09-08T15:58:09;29.30;88.90
13697;DHT22;6920;50.080;8.226;2023-09-08T16:03:15;29.20;88.50
13697;DHT22;6920;50.080;8.226;2023-09-08T16:05:45;29.30;88.00
13697;DHT22;6920;50.080;8.226;2023-09-08T16:08:14;29.30;89.10
13697;DHT22;6920;50.080;8.226;2023-09-08T16:10:42;29.10;89.10
13697;DHT22;6920;50.080;8.226;2023-09-08T16:13:11;29.10;88.90
13697;DHT22;6920;50.080;8.226;2023-09-08T16:15:38;29.00;89.50
13697;DHT22;6920;50.080;8.226;2023-09-08T16:18:09;28.90;88.10
13697;DHT22;6920;50.080;8.226;2023-09-08T16:20:40;28.80;88.20
13697;DHT22;6920;50.080;8.226;2023-09-08T16:23:12;28.70;89.30
13697;DHT22;6920;50.080;8.226;2023-09-08T16:25:45;28.70;89.10
13697;DHT22;6920;50.080;8.226;2023-09-08T16:28:13;28.80;90.10
13697;DHT22;6920;50.080;8.226;2023-09-08T16:33:11;28.70;90.30
13697;DHT22;6920;50.080;8.226;2023-09-08T16:35:41;28.60;89.90
13697;DHT22;6920;50.080;8.226;2023-09-08T16:38:10;28.50;90.20
13697;DHT22;6920;50.080;8.226;2023-09-08T16:40:39;28.60;90.20
13697;DHT22;6920;50.080;8.226;2023-09-08T16:43:07;28.40;90.40
13697;DHT22;6920;50.080;8.226;2023-09-08T16:45:34;28.40;90.80
13697;DHT22;6920;50.080;8.226;2023-09-08T16:48:05;28.30;90.70
13697;DHT22;6920;50.080;8.226;2023-09-08T16:50:34;28.30;91.20
13697;DHT22;6920;50.080;8.226;2023-09-08T16:53:05;28.30;91.50
13697;DHT22;6920;50.080;8.226;2023-09-08T16:55:35;28.10;91.20
13697;DHT22;6920;50.080;8.226;2023-09-08T16:58:03;28.20;91.40
13697;DHT22;6920;50.080;8.226;2023-09-08T17:00:32;28.10;91.20
13697;DHT22;6920;50.080;8.226;2023-09-08T17:03:04;28.00;91.00
13697;DHT22;6920;50.080;8.226;2023-09-08T17:05:32;28.00;91.60
13697;DHT22;6920;50.080;8.226;2023-09-08T17:08:01;28.00;91.00
13697;DHT22;6920;50.080;8.226;2023-09-08T17:10:29;28.10;91.40
13697;DHT22;6920;50.080;8.226;2023-09-08T17:12:56;28.00;91.30
13697;DHT22;6920;50.080;8.226;2023-09-08T17:15:27;27.80;91.40
13697;DHT22;6920;50.080;8.226;2023-09-08T17:20:29;27.90;94.50
13697;DHT22;6920;50.080;8.226;2023-09-08T17:23:05;27.50;97.50
13697;DHT22;6920;50.080;8.226;2023-09-08T17:25:35;27.10;99.00
13697;DHT22;6920;50.080;8.226;2023-09-08T17:28:07;26.90;99.90
13697;DHT22;6920;50.080;8.226;2023-09-08T17:30:49;26.70;99.90
13697;DHT22;6920;50.080;8.226;2023-09-08T17:33:17;26.40;99.90
13697;DHT22;6920;50.080;8.226;2023-09-08T17:35:46;26.10;99.90
13697;DHT22;6920;50.080;8.226;2023-09-08T17:38:15;26.10;99.90
13697;DHT22;6920;50.080;8.226;2023-09-08T17:41:05;25.90;99.90
13697;DHT22;6920;50.080;8.226;2023-09-08T17:47:00;25.60;99.90
13697;DHT22;6920;50.080;8.226;2023-09-08T17:49:31;25.40;99.90
13697;DHT22;6920;50.080;8.226;2023-09-08T17:52:02;25.20;99.90
13697;DHT22;6920;50.080;8.226;2023-09-08T17:54:31;25.10;99.90
13697;DHT22;6920;50.080;8.226;2023-09-08T17:59:30;24.80;99.90
13697;DHT22;6920;50.080;8.226;2023-09-08T18:01:57;24.60;99.90
13697;DHT22;6920;50.080;8.226;2023-09-08T18:11:59;24.20;99.90
13697;DHT22;6920;50.080;8.226;2023-09-08T18:14:31;24.00;99.90
13697;DHT22;6920;50.080;8.226;2023-09-08T18:17:00;23.90;99.90
13697;DHT22;6920;50.080;8.226;2023-09-08T18:19:29;23.80;99.90
13697;DHT22;6920;50.080;8.226;2023-09-08T18:22:04;23.70;99.90
13697;DHT22;6920;50.080;8.226;2023-09-08T18:24:35;23.70;99.90
13697;DHT22;6920;50.080;8.226;2023-09-08T18:27:03;23.60;99.90
13697;DHT22;6920;50.080;8.226;2023-09-08T18:29:36;23.40;99.90
13697;DHT22;6920;50.080;8.226;2023-09-08T18:32:05;23.40;99.90
13697;DHT22;6920;50.080;8.226;2023-09-08T18:34:34;23.30;99.90
13697;DHT22;6920;50.080;8.226;2023-09-08T18:37:02;23.30;99.90
13697;DHT22;6920;50.080;8.226;2023-09-08T18:39:30;23.20;99.90
13697;DHT22;6920;50.080;8.226;2023-09-08T18:42:05;23.20;99.90
13697;DHT22;6920;50.080;8.226;2023-09-08T18:49:35;23.10;99.90
13697;DHT22;6920;50.080;8.226;2023-09-08T18:52:05;23.00;99.90
13697;DHT22;6920;50.080;8.226;2023-09-08T18:54:35;22.80;99.90
13697;DHT22;6920;50.080;8.226;2023-09-08T18:57:04;22.80;99.90
13697;DHT22;6920;50.080;8.226;2023-09-08T18:59:33;22.70;99.90
13697;DHT22;6920;50.080;8.226;2023-09-08T19:02:02;22.60;99.90
13697;DHT22;6920;50.080;8.226;2023-09-08T19:07:02;22.50;99.90
13697;DHT22;6920;50.080;8.226;2023-09-08T19:09:29;22.50;99.90
13697;DHT22;6920;50.080;8.226;2023-09-08T19:11:58;22.30;99.90
13697;DHT22;6920;50.080;8.226;2023-09-08T19:14:27;22.30;99.90
13697;DHT22;6920;50.080;8.226;2023-09-08T19:16:55;22.30;99.90
13697;DHT22;6920;50.080;8.226;2023-09-08T19:19:25;22.20;99.90
13697;DHT22;6920;50.080;8.226;2023-09-08T19:24:28;22.00;99.90
13697;DHT22;6920;50.080;8.226;2023-09-08T19:26:57;21.90;99.90
13697;DHT22;6920;50.080;8.226;2023-09-08T19:29:26;22.00;99.90
13697;DHT22;6920;50.080;8.226;2023-09-08T19:31:53;22.00;99.90
13697;DHT22;6920;50.080;8.226;2023-09-08T19:34:21;21.90;99.90
13697;DHT22;6920;50.080;8.226;2023-09-08T19:36:53;21.60;99.90
13697;DHT22;6920;50.080;8.226;2023-09-08T19:39:25;21.70;99.90
13697;DHT22;6920;50.080;8.226;2023-09-08T19:44:24;21.60;99.90
13697;DHT22;6920;50.080;8.226;2023-09-08T19:47:13;21.60;99.90
13697;DHT22;6920;50.080;8.226;2023-09-08T19:49:40;21.60;99.90
13697;DHT22;6920;50.080;8.226;2023-09-08T19:52:11;21.60;99.90
13697;DHT22;6920;50.080;8.226;2023-09-08T19:54:43;21.60;99.90
13697;DHT22;6920;50.080;8.226;2023-09-08T19:57:11;21.70;99.90
13697;DHT22;6920;50.080;8.226;2023-09-08T19:59:38;21.60;99.90
13697;DHT22;6920;50.080;8.226;2023-09-08T20:02:07;21.50;99.90
13697;DHT22;6920;50.080;8.226;2023-09-08T20:04:45;21.40;99.90
13697;DHT22;6920;50.080;8.226;2023-09-08T20:07:16;21.50;99.90
13697;DHT22;6920;50.080;8.226;2023-09-08T20:09:47;21.30;99.90
13697;DHT22;6920;50.080;8.226;2023-09-08T20:12:18;21.60;99.90
13697;DHT22;6920;50.080;8.226;2023-09-08T20:14:47;21.50;99.90
13697;DHT22;6920;50.080;8.226;2023-09-08T20:17:15;21.50;99.90
13697;DHT22;6920;50.080;8.226;2023-09-08T20:19:45;21.40;99.90
13697;DHT22;6920;50.080;8.226;2023-09-08T20:22:13;21.40;99.90
13697;DHT22;6920;50.080;8.226;2023-09-08T20:24:40;21.20;99.90
13697;DHT22;6920;50.080;8.226;2023-09-08T20:27:10;21.20;99.90
13697;DHT22;6920;50.080;8.226;2023-09-08T20:29:41;21.20;99.90
13697;DHT22;6920;50.080;8.226;2023-09-08T20:32:08;21.10;99.90
13697;DHT22;6920;50.080;8.226;2023-09-08T20:34:37;21.10;99.90
13697;DHT22;6920;50.080;8.226;2023-09-08T20:37:08;21.20;99.90
13697;DHT22;6920;50.080;8.226;2023-09-08T20:39:38;21.20;99.90
13697;DHT22;6920;50.080;8.226;2023-09-08T20:42:06;21.10;99.90
13697;DHT22;6920;50.080;8.226;2023-09-08T20:44:41;21.10;99.90
13697;DHT22;6920;50.080;8.226;2023-09-08T20:47:09;21.10;99.90
13697;DHT22;6920;50.080;8.226;2023-09-08T20:49:38;21.00;99.90
13697;DHT22;6920;50.080;8.226;2023-09-08T20:52:14;20.90;99.90
13697;DHT22;6920;50.080;8.226;2023-09-08T20:54:44;21.00;99.90
13697;DHT22;6920;50.080;8.226;2023-09-08T20:57:13;21.00;99.90
13697;DHT22;6920;50.080;8.226;2023-09-08T20:59:41;21.10;99.90
13697;DHT22;6920;50.080;8.226;2023-09-08T21:02:08;21.00;99.90
13697;DHT22;6920;50.080;8.226;2023-09-08T21:04:36;20.90;99.90
13697;DHT22;6920;50.080;8.226;2023-09-08T21:07:03;20.90;99.90
13697;DHT22;6920;50.080;8.226;2023-09-08T21:09:32;20.90;99.90
13697;DHT22;6920;50.080;8.226;2023-09-08T21:11:59;20.90;99.90
13697;DHT22;6920;50.080;8.226;2023-09-08T21:14:27;20.80;99.90
13697;DHT22;6920;50.080;8.226;2023-09-08T21:17:00;20.70;99.90
13697;DHT22;6920;50.080;8.226;2023-09-08T21:19:31;20.80;99.90
13697;DHT22;6920;50.080;8.226;2023-09-08T21:22:01;20.80;99.90
13697;DHT22;6920;50.080;8.226;2023-09-08T21:24:30;20.80;99.90
13697;DHT22;6920;50.080;8.226;2023-09-08T21:27:01;20.70;99.90
13697;DHT22;6920;50.080;8.226;2023-09-08T21:29:28;20.70;99.90
13697;DHT22;6920;50.080;8.226;2023-09-08T21:32:05;20.80;99.90
13697;DHT22;6920;50.080;8.226;2023-09-08T21:34:37;20.70;99.90
13697;DHT22;6920;50.080;8.226;2023-09-08T21:37:06;20.60;99.90
13697;DHT22;6920;50.080;8.226;2023-09-08T21:39:40;20.50;99.90
13697;DHT22;6920;50.080;8.226;2023-09-08T21:42:11;20.50;99.90
13697;DHT22;6920;50.080;8.226;2023-09-08T21:44:41;20.50;99.90
13697;DHT22;6920;50.080;8.226;2023-09-08T21:47:13;20.50;99.90
13697;DHT22;6920;50.080;8.226;2023-09-08T21:52:08;20.40;99.90
13697;DHT22;6920;50.080;8.226;2023-09-08T21:54:37;20.30;99.90
13697;DHT22;6920;50.080;8.226;2023-09-08T21:57:10;20.40;99.90
13697;DHT22;6920;50.080;8.226;2023-09-08T21:59:38;20.40;99.90
13697;DHT22;6920;50.080;8.226;2023-09-08T22:02:05;20.40;99.90
13697;DHT22;6920;50.080;8.226;2023-09-08T22:04:35;20.30;99.90
13697;DHT22;6920;50.080;8.226;2023-09-08T22:07:03;20.40;99.90
13697;DHT22;6920;50.080;8.226;2023-09-08T22:12:00;20.30;99.90
13697;DHT22;6920;50.080;8.226;2023-09-08T22:14:30;20.30;99.90
13697;DHT22;6920;50.080;8.226;2023-09-08T22:17:02;20.20;99.90
13697;DHT22;6920;50.080;8.226;2023-09-08T22:19:32;20.20;99.90
13697;DHT22;6920;50.080;8.226;2023-09-08T22:22:03;20.10;99.90
13697;DHT22;6920;50.080;8.226;2023-09-08T22:24:34;20.10;99.90
13697;DHT22;6920;50.080;8.226;2023-09-08T22:27:02;20.10;99.90
13697;DHT22;6920;50.080;8.226;2023-09-08T22:29:29;20.00;99.90
13697;DHT22;6920;50.080;8.226;2023-09-08T22:31:58;20.10;99.90
13697;DHT22;6920;50.080;8.226;2023-09-08T22:34:26;20.00;99.90
13697;DHT22;6920;50.080;8.226;2023-09-08T22:36:56;20.00;99.90
13697;DHT22;6920;50.080;8.226;2023-09-08T22:39:32;20.00;99.90
13697;DHT22;6920;50.080;8.226;2023-09-08T22:41:59;20.00;99.90
13697;DHT22;6920;50.080;8.226;2023-09-08T22:44:28;19.90;99.90
13697;DHT22;6920;50.080;8.226;2023-09-08T22:46:57;19.80;99.90
13697;DHT22;6920;50.080;8.226;2023-09-08T22:49:58;19.70;99.90
13697;DHT22;6920;50.080;8.226;2023-09-08T22:52:25;19.80;99.90
13697;DHT22;6920;50.080;8.226;2023-09-08T22:54:55;19.70;99.90
13697;DHT22;6920;50.080;8.226;2023-09-08T22:57:24;19.70;99.90
13697;DHT22;6920;50.080;8.226;2023-09-08T22:59:52;19.70;99.90
13697;DHT22;6920;50.080;8.226;2023-09-08T23:02:20;19.60;99.90
13697;DHT22;6920;50.080;8.226;2023-09-08T23:04:48;19.60;99.90
13697;DHT22;6920;50.080;8.226;2023-09-08T23:07:16;19.50;99.90
13697;DHT22;6920;50.080;8.226;2023-09-08T23:09:45;19.50;99.90
13697;DHT22;6920;50.080;8.226;2023-09-08T23:12:14;19.50;99.90
13697;DHT22;6920;50.080;8.226;2023-09-08T23:14:42;19.40;99.90
13697;DHT22;6920;50.080;8.226;2023-09-08T23:17:10;19.30;99.90
13697;DHT22;6920;50.080;8.226;2023-09-08T23:19:38;19.30;99.90
13697;DHT22;6920;50.080;8.226;2023-09-08T23:22:05;19.30;99.90
13697;DHT22;6920;50.080;8.226;2023-09-08T23:24:32;19.20;99.90
13697;DHT22;6920;50.080;8.226;2023-09-08T23:27:06;19.20;99.90
13697;DHT22;6920;50.080;8.226;2023-09-08T23:29:39;19.10;99.90
13697;DHT22;6920;50.080;8.226;2023-09-08T23:32:09;19.20;99.90
13697;DHT22;6920;50.080;8.226;2023-09-08T23:34:38;19.30;99.90
13697;DHT22;6920;50.080;8.226;2023-09-08T23:37:07;19.30;99.90
13697;DHT22;6920;50.080;8.226;2023-09-08T23:39:36;19.10;99.90
13697;DHT22;6920;50.080;8.226;2023-09-08T23:42:05;19.20;99.90
13697;DHT22;6920;50.080;8.226;2023-09-08T23:44:33;19.30;99.90